createdAt,value
2016-12-26T00:00:03.785Z,72.26
2016-12-26T00:00:20.960Z,70.9
2016-12-26T00:00:38.146Z,71.2
2016-12-26T00:00:55.335Z,70.23
2016-12-26T00:01:12.502Z,71.2
2016-12-26T00:01:29.696Z,70.42
2016-12-26T00:01:46.895Z,70.62
2016-12-26T00:02:04.098Z,70.72
2016-12-26T00:02:21.282Z,70.62
2016-12-26T00:02:38.454Z,70.72
2016-12-26T00:02:56.023Z,71
2016-12-26T00:03:13.224Z,70.62
2016-12-26T00:03:30.406Z,70.72
2016-12-26T00:03:47.580Z,69.74
2016-12-26T00:04:04.747Z,71.2
2016-12-26T00:04:21.912Z,71.1
2016-12-26T00:04:39.067Z,71.2
2016-12-26T00:04:56.217Z,71.2
2016-12-26T00:05:13.397Z,71.58
2016-12-26T00:05:30.588Z,70.81
2016-12-26T00:05:47.785Z,70.52
2016-12-26T00:06:05.557Z,70.42
2016-12-26T00:06:23.293Z,70.14
2016-12-26T00:06:40.476Z,70.52
2016-12-26T00:06:57.638Z,70.72
2016-12-26T00:07:14.818Z,71.48
2016-12-26T00:07:32.016Z,71.58
2016-12-26T00:07:49.187Z,72.06
2016-12-26T00:08:06.373Z,72.49
2016-12-26T00:08:23.550Z,72.39
2016-12-26T00:08:40.731Z,72.2
2016-12-26T00:08:57.896Z,73.13
2016-12-26T00:09:15.078Z,73.03
2016-12-26T00:09:33.419Z,73.36
2016-12-26T00:09:50.594Z,73.84
2016-12-26T00:10:07.792Z,73.55
2016-12-26T00:10:24.988Z,73.46
2016-12-26T00:10:42.180Z,74.13
2016-12-26T00:10:59.354Z,74.04
2016-12-26T00:11:16.543Z,72.97
2016-12-26T00:11:33.741Z,72.2
2016-12-26T00:11:50.932Z,72.2
2016-12-26T00:12:08.112Z,72.3
2016-12-26T00:12:25.323Z,72.26
2016-12-26T00:12:42.523Z,72.36
2016-12-26T00:12:59.719Z,72.26
2016-12-26T00:13:16.904Z,70.62
2016-12-26T00:13:34.091Z,70.81
2016-12-26T00:13:51.295Z,69.94
2016-12-26T00:14:08.500Z,70.23
2016-12-26T00:14:25.681Z,69.56
2016-12-26T00:14:42.864Z,69.26
2016-12-26T00:15:00.058Z,69.46
2016-12-26T00:15:17.230Z,69.65
2016-12-26T00:15:34.384Z,69.07
2016-12-26T00:15:51.572Z,69.84
2016-12-26T00:16:08.742Z,69.26
2016-12-26T00:16:25.928Z,68.49
2016-12-26T00:16:43.131Z,67.82
2016-12-26T00:17:00.320Z,67.62
2016-12-26T00:17:17.490Z,66.75
2016-12-26T00:17:34.666Z,66.66
2016-12-26T00:17:51.848Z,66.66
2016-12-26T00:18:09.020Z,66.08
2016-12-26T00:18:26.216Z,65.11
2016-12-26T00:18:43.379Z,65.2
2016-12-26T00:19:00.547Z,64.43
2016-12-26T00:19:17.760Z,64.5
2016-12-26T00:19:34.925Z,64.01
2016-12-26T00:19:52.113Z,64.01
2016-12-26T00:20:09.273Z,64.11
2016-12-26T00:20:26.474Z,63.73
2016-12-26T00:20:43.626Z,63.53
2016-12-26T00:21:00.822Z,63.34
2016-12-26T00:21:18.018Z,63.85
2016-12-26T00:21:35.191Z,62.86
2016-12-26T00:21:52.357Z,63.24
2016-12-26T00:22:09.513Z,62.86
2016-12-26T00:22:26.693Z,62.86
2016-12-26T00:22:43.856Z,62.18
2016-12-26T00:23:01.014Z,63.05
2016-12-26T00:23:18.220Z,63.43
2016-12-26T00:23:35.391Z,63.85
2016-12-26T00:23:52.578Z,63.56
2016-12-26T00:24:09.775Z,63.18
2016-12-26T00:24:26.930Z,63.47
2016-12-26T00:24:44.108Z,63.37
2016-12-26T00:25:01.297Z,63.76
2016-12-26T00:25:18.436Z,63.76
2016-12-26T00:25:36.180Z,63.76
2016-12-26T00:25:53.361Z,64.14
2016-12-26T00:26:10.518Z,63.85
2016-12-26T00:26:27.722Z,64.34
2016-12-26T00:26:45.471Z,63.76
2016-12-26T00:27:02.660Z,63.56
2016-12-26T00:27:19.830Z,63.76
2016-12-26T00:27:36.999Z,64.53
2016-12-26T00:27:54.206Z,63.85
2016-12-26T00:28:11.388Z,64.05
2016-12-26T00:28:29.165Z,64.14
2016-12-26T00:28:46.329Z,64.14
2016-12-26T00:29:03.520Z,62.98
2016-12-26T00:29:20.694Z,63.08
2016-12-26T00:29:37.868Z,63.66
2016-12-26T00:29:55.053Z,63.76
2016-12-26T00:30:12.230Z,63.47
2016-12-26T00:30:29.407Z,63.37
2016-12-26T00:30:46.578Z,62.98
2016-12-26T00:31:03.742Z,62.79
2016-12-26T00:31:20.915Z,62.21
2016-12-26T00:31:38.082Z,61.51
2016-12-26T00:31:55.242Z,60.96
2016-12-26T00:32:12.437Z,61.02
2016-12-26T00:32:29.620Z,61.25
2016-12-26T00:32:46.787Z,61.02
2016-12-26T00:33:04.025Z,61.8
2016-12-26T00:33:21.181Z,62.89
2016-12-26T00:33:38.377Z,61.92
2016-12-26T00:33:55.559Z,62.12
2016-12-26T00:34:12.743Z,62.89
2016-12-26T00:34:29.903Z,62.02
2016-12-26T00:34:47.115Z,61.83
2016-12-26T00:35:04.292Z,60.93
2016-12-26T00:35:22.048Z,61.31
2016-12-26T00:35:39.223Z,61.41
2016-12-26T00:35:56.415Z,61.73
2016-12-26T00:36:13.632Z,61.92
2016-12-26T00:36:30.815Z,61.73
2016-12-26T00:36:48.021Z,61.54
2016-12-26T00:37:05.194Z,61.92
2016-12-26T00:37:22.385Z,61.73
2016-12-26T00:37:39.557Z,61.92
2016-12-26T00:37:56.733Z,62.02
2016-12-26T00:38:13.912Z,62.28
2016-12-26T00:38:31.102Z,62.89
2016-12-26T00:38:48.323Z,62.4
2016-12-26T00:39:05.497Z,62.12
2016-12-26T00:39:22.699Z,62.5
2016-12-26T00:39:39.911Z,62.89
2016-12-26T00:39:57.093Z,62.79
2016-12-26T00:40:14.848Z,62.7
2016-12-26T00:40:32.031Z,62.5
2016-12-26T00:40:49.224Z,62.21
2016-12-26T00:41:06.420Z,62.4
2016-12-26T00:41:23.577Z,61.92
2016-12-26T00:41:40.756Z,61.92
2016-12-26T00:41:57.940Z,61.92
2016-12-26T00:42:15.125Z,61.83
2016-12-26T00:42:32.293Z,62.12
2016-12-26T00:42:49.520Z,62.5
2016-12-26T00:43:06.678Z,62.08
2016-12-26T00:43:23.853Z,60.54
2016-12-26T00:43:41.021Z,63.24
2016-12-26T00:43:58.219Z,62.08
2016-12-26T00:44:15.392Z,63.05
2016-12-26T00:44:32.579Z,61.99
2016-12-26T00:44:49.755Z,62.47
2016-12-26T00:45:06.939Z,65.2
2016-12-26T00:45:24.131Z,64.01
2016-12-26T00:45:41.333Z,65.08
2016-12-26T00:45:58.522Z,65.88
2016-12-26T00:46:15.706Z,65.17
2016-12-26T00:46:32.880Z,64.89
2016-12-26T00:46:50.042Z,64.21
2016-12-26T00:47:07.229Z,64.4
2016-12-26T00:47:24.431Z,63.15
2016-12-26T00:47:41.588Z,64.11
2016-12-26T00:47:58.803Z,66.91
2016-12-26T00:48:15.980Z,66.43
2016-12-26T00:48:33.161Z,66.63
2016-12-26T00:48:50.350Z,63.92
2016-12-26T00:49:07.519Z,64.89
2016-12-26T00:49:24.697Z,67.59
2016-12-26T00:49:41.870Z,67.01
2016-12-26T00:49:59.035Z,66.33
2016-12-26T00:50:16.765Z,67.33
2016-12-26T00:50:33.945Z,67.91
2016-12-26T00:50:51.149Z,68.26
2016-12-26T00:51:08.361Z,68.46
2016-12-26T00:51:25.560Z,70
2016-12-26T00:51:42.714Z,69.42
2016-12-26T00:51:59.893Z,70
2016-12-26T00:52:17.074Z,70.48
2016-12-26T00:52:34.259Z,70.78
2016-12-26T00:52:51.440Z,72.45
2016-12-26T00:53:08.669Z,72.55
2016-12-26T00:53:25.859Z,72.16
2016-12-26T00:53:43.041Z,72.06
2016-12-26T00:54:00.234Z,71.88
2016-12-26T00:54:17.398Z,71.78
2016-12-26T00:54:34.565Z,72.84
2016-12-26T00:54:51.755Z,71.48
2016-12-26T00:55:08.972Z,73.13
2016-12-26T00:55:26.144Z,71.36
2016-12-26T00:55:43.341Z,71.78
2016-12-26T00:56:00.496Z,70.39
2016-12-26T00:56:17.656Z,72.64
2016-12-26T00:56:34.843Z,72.52
2016-12-26T00:56:52.025Z,72.16
2016-12-26T00:57:09.196Z,72.55
2016-12-26T00:57:26.364Z,71.74
2016-12-26T00:57:43.786Z,70.87
2016-12-26T00:58:00.965Z,69.81
2016-12-26T00:58:18.134Z,69.62
2016-12-26T00:58:35.301Z,70.78
2016-12-26T00:58:52.479Z,70.87
2016-12-26T00:59:09.682Z,70.39
2016-12-26T00:59:26.857Z,71.06
2016-12-26T00:59:44.035Z,69.9
2016-12-26T01:00:01.795Z,70.97
2016-12-26T01:00:18.982Z,68.84
2016-12-26T01:00:36.168Z,68.94
2016-12-26T01:00:53.340Z,67.01
2016-12-26T01:01:10.526Z,68.65
2016-12-26T01:01:27.676Z,69.9
2016-12-26T01:01:44.852Z,69.81
2016-12-26T01:02:02.018Z,69.42
2016-12-26T01:02:19.210Z,70.78
2016-12-26T01:02:36.369Z,70.78
2016-12-26T01:02:53.563Z,69.62
2016-12-26T01:03:10.736Z,67.2
2016-12-26T01:03:27.904Z,68.55
2016-12-26T01:03:45.097Z,68.46
2016-12-26T01:04:02.285Z,68.46
2016-12-26T01:04:19.481Z,68.94
2016-12-26T01:04:36.644Z,69.23
2016-12-26T01:04:53.823Z,68.46
2016-12-26T01:05:11.570Z,69.04
2016-12-26T01:05:28.743Z,69.52
2016-12-26T01:05:45.917Z,69.52
2016-12-26T01:06:03.107Z,68.17
2016-12-26T01:06:20.288Z,68.36
2016-12-26T01:06:37.484Z,69.71
2016-12-26T01:06:54.673Z,69.13
2016-12-26T01:07:11.878Z,69.9
2016-12-26T01:07:29.059Z,68.84
2016-12-26T01:07:46.270Z,70.1
2016-12-26T01:08:03.431Z,70.68
2016-12-26T01:08:20.603Z,70
2016-12-26T01:08:37.825Z,70.97
2016-12-26T01:08:55.006Z,71.06
2016-12-26T01:09:12.203Z,70.87
2016-12-26T01:09:29.371Z,70.68
2016-12-26T01:09:46.512Z,70.87
2016-12-26T01:10:03.727Z,70.48
2016-12-26T01:10:20.898Z,70.68
2016-12-26T01:10:38.061Z,70.97
2016-12-26T01:10:55.230Z,70.78
2016-12-26T01:11:12.404Z,71.16
2016-12-26T01:11:29.570Z,71.45
2016-12-26T01:11:46.763Z,70.68
2016-12-26T01:12:03.933Z,71.45
2016-12-26T01:12:21.092Z,71.36
2016-12-26T01:12:38.259Z,71.45
2016-12-26T01:12:55.424Z,70.87
2016-12-26T01:13:12.599Z,71.45
2016-12-26T01:13:29.778Z,71.74
2016-12-26T01:13:46.971Z,71.94
2016-12-26T01:14:04.164Z,71.36
2016-12-26T01:14:21.312Z,71.36
2016-12-26T01:14:38.509Z,71.55
2016-12-26T01:14:55.690Z,71.16
2016-12-26T01:15:12.854Z,71.45
2016-12-26T01:15:30.014Z,71.16
2016-12-26T01:15:47.170Z,71.45
2016-12-26T01:16:04.341Z,71.26
2016-12-26T01:16:21.516Z,71.16
2016-12-26T01:16:38.711Z,71.55
2016-12-26T01:16:55.886Z,70.97
2016-12-26T01:17:13.072Z,70.97
2016-12-26T01:17:30.251Z,70.87
2016-12-26T01:17:47.534Z,70.81
2016-12-26T01:18:04.711Z,70.87
2016-12-26T01:18:21.930Z,71.3
2016-12-26T01:18:39.110Z,71.36
2016-12-26T01:18:56.290Z,71.45
2016-12-26T01:19:13.464Z,71.36
2016-12-26T01:19:30.629Z,71.84
2016-12-26T01:19:47.816Z,71.64
2016-12-26T01:20:05.007Z,70.9
2016-12-26T01:20:22.210Z,71.1
2016-12-26T01:20:39.393Z,71.74
2016-12-26T01:20:56.583Z,72.26
2016-12-26T01:21:13.790Z,71.78
2016-12-26T01:21:30.999Z,72.55
2016-12-26T01:21:48.183Z,73.03
2016-12-26T01:22:05.483Z,73.03
2016-12-26T01:22:22.733Z,72.84
2016-12-26T01:22:39.932Z,72.26
2016-12-26T01:22:57.108Z,72.45
2016-12-26T01:23:14.306Z,72.13
2016-12-26T01:23:31.489Z,72.45
2016-12-26T01:23:48.676Z,73.13
2016-12-26T01:24:05.857Z,72.26
2016-12-26T01:24:23.028Z,70.9
2016-12-26T01:24:40.207Z,72.06
2016-12-26T01:24:57.369Z,72.36
2016-12-26T01:25:14.548Z,72.16
2016-12-26T01:25:31.746Z,72.64
2016-12-26T01:25:48.922Z,71.48
2016-12-26T01:26:06.090Z,71.2
2016-12-26T01:26:23.238Z,71.68
2016-12-26T01:26:40.416Z,71.48
2016-12-26T01:26:57.592Z,72.36
2016-12-26T01:27:14.767Z,72.94
2016-12-26T01:27:31.962Z,72.45
2016-12-26T01:27:49.147Z,72.26
2016-12-26T01:28:06.327Z,72.64
2016-12-26T01:28:24.123Z,72.36
2016-12-26T01:28:41.306Z,71.88
2016-12-26T01:28:58.496Z,71.97
2016-12-26T01:29:15.692Z,71.88
2016-12-26T01:29:32.862Z,71.68
2016-12-26T01:29:50.035Z,70.81
2016-12-26T01:30:07.807Z,71.68
2016-12-26T01:30:25.003Z,72.16
2016-12-26T01:30:42.177Z,72.55
2016-12-26T01:30:59.356Z,72.55
2016-12-26T01:31:16.534Z,71.68
2016-12-26T01:31:33.736Z,71.88
2016-12-26T01:31:50.907Z,71.88
2016-12-26T01:32:08.115Z,72.26
2016-12-26T01:32:25.271Z,71.88
2016-12-26T01:32:42.440Z,71.88
2016-12-26T01:33:00.188Z,72.64
2016-12-26T01:33:17.368Z,71.88
2016-12-26T01:33:34.549Z,72.06
2016-12-26T01:33:51.757Z,71.97
2016-12-26T01:34:08.933Z,71.78
2016-12-26T01:34:26.130Z,71.3
2016-12-26T01:34:43.880Z,71.58
2016-12-26T01:35:01.065Z,71.78
2016-12-26T01:35:18.240Z,71.2
2016-12-26T01:35:35.446Z,71.78
2016-12-26T01:35:52.637Z,71.78
2016-12-26T01:36:09.859Z,71.2
2016-12-26T01:36:27.049Z,71.3
2016-12-26T01:36:44.222Z,71.78
2016-12-26T01:37:01.427Z,70.9
2016-12-26T01:37:18.604Z,70.81
2016-12-26T01:37:36.091Z,70.32
2016-12-26T01:37:53.256Z,69.94
2016-12-26T01:38:10.442Z,69.26
2016-12-26T01:38:27.638Z,69.13
2016-12-26T01:38:44.811Z,68.46
2016-12-26T01:39:01.995Z,68.75
2016-12-26T01:39:19.182Z,68.75
2016-12-26T01:39:36.379Z,68.55
2016-12-26T01:39:53.554Z,68.55
2016-12-26T01:40:10.740Z,68.94
2016-12-26T01:40:27.916Z,68.98
2016-12-26T01:40:45.091Z,68.55
2016-12-26T01:41:02.273Z,69.52
2016-12-26T01:41:19.463Z,69.71
2016-12-26T01:41:36.684Z,70.1
2016-12-26T01:41:53.864Z,69.52
2016-12-26T01:42:11.067Z,69.81
2016-12-26T01:42:28.240Z,69.46
2016-12-26T01:42:45.412Z,70.14
2016-12-26T01:43:02.594Z,70.9
2016-12-26T01:43:19.766Z,70.87
2016-12-26T01:43:36.955Z,70.9
2016-12-26T01:43:54.121Z,69.65
2016-12-26T01:44:11.291Z,70.9
2016-12-26T01:44:28.474Z,70.72
2016-12-26T01:44:45.660Z,71.39
2016-12-26T01:45:02.836Z,71.1
2016-12-26T01:45:20.019Z,70.72
2016-12-26T01:45:37.214Z,70.72
2016-12-26T01:45:54.416Z,71.1
2016-12-26T01:46:11.612Z,70.72
2016-12-26T01:46:28.787Z,70.81
2016-12-26T01:46:45.959Z,71
2016-12-26T01:47:03.147Z,71
2016-12-26T01:47:20.280Z,71.1
2016-12-26T01:47:37.614Z,71.58
2016-12-26T01:47:54.790Z,72.06
2016-12-26T01:48:11.976Z,71.97
2016-12-26T01:48:29.728Z,71.78
2016-12-26T01:48:46.881Z,71.78
2016-12-26T01:49:04.082Z,71.78
2016-12-26T01:49:21.259Z,71.2
2016-12-26T01:49:38.458Z,71.68
2016-12-26T01:49:55.624Z,71.68
2016-12-26T01:50:12.840Z,71.88
2016-12-26T01:50:30.016Z,72.16
2016-12-26T01:50:47.200Z,71.78
2016-12-26T01:51:04.407Z,71.88
2016-12-26T01:51:21.562Z,71.3
2016-12-26T01:51:38.734Z,69.07
2016-12-26T01:51:55.902Z,70.23
2016-12-26T01:52:13.108Z,71.97
2016-12-26T01:52:30.279Z,71.48
2016-12-26T01:52:47.457Z,71.2
2016-12-26T01:53:04.625Z,71
2016-12-26T01:53:21.772Z,72.84
2016-12-26T01:53:38.956Z,73.03
2016-12-26T01:53:56.119Z,72.45
2016-12-26T01:54:13.315Z,72.74
2016-12-26T01:54:30.493Z,71.48
2016-12-26T01:54:47.675Z,71.2
2016-12-26T01:55:04.852Z,71.2
2016-12-26T01:55:22.030Z,71
2016-12-26T01:55:39.211Z,71.3
2016-12-26T01:55:56.397Z,71.1
2016-12-26T01:56:13.583Z,69.94
2016-12-26T01:56:30.745Z,69.56
2016-12-26T01:56:47.911Z,69.36
2016-12-26T01:57:05.649Z,68.98
2016-12-26T01:57:22.837Z,68.88
2016-12-26T01:57:40.033Z,69.36
2016-12-26T01:57:57.217Z,67.14
2016-12-26T01:58:14.395Z,66.66
2016-12-26T01:58:31.571Z,65.78
2016-12-26T01:58:48.742Z,64.43
2016-12-26T01:59:05.881Z,64.63
2016-12-26T01:59:23.085Z,66.17
2016-12-26T01:59:40.245Z,65.01
2016-12-26T01:59:57.976Z,67.14
2016-12-26T02:00:15.125Z,67.72
2016-12-26T02:00:32.296Z,66.66
2016-12-26T02:00:49.487Z,66.75
2016-12-26T02:01:06.666Z,66.85
2016-12-26T02:01:23.856Z,66.94
2016-12-26T02:01:41.067Z,67.62
2016-12-26T02:01:58.284Z,67.14
2016-12-26T02:02:15.441Z,67.52
2016-12-26T02:02:32.618Z,68.4
2016-12-26T02:02:49.805Z,67.82
2016-12-26T02:03:06.970Z,67.88
2016-12-26T02:03:24.148Z,67.43
2016-12-26T02:03:41.308Z,68.78
2016-12-26T02:03:58.520Z,68.1
2016-12-26T02:04:15.697Z,67.91
2016-12-26T02:04:32.870Z,68.3
2016-12-26T02:04:50.065Z,68.4
2016-12-26T02:05:07.236Z,68.49
2016-12-26T02:05:24.402Z,68.78
2016-12-26T02:05:41.569Z,68.68
2016-12-26T02:05:58.760Z,68.3
2016-12-26T02:06:15.953Z,68.01
2016-12-26T02:06:33.132Z,67.72
2016-12-26T02:06:50.279Z,66.85
2016-12-26T02:07:07.469Z,66.05
2016-12-26T02:07:24.641Z,65.95
2016-12-26T02:07:41.985Z,64.5
2016-12-26T02:07:59.179Z,65.17
2016-12-26T02:08:16.755Z,64.89
2016-12-26T02:08:34.264Z,63.63
2016-12-26T02:08:51.445Z,62.86
2016-12-26T02:09:08.626Z,63.15
2016-12-26T02:09:25.833Z,62.95
2016-12-26T02:09:43.001Z,62.95
2016-12-26T02:10:00.198Z,63.05
2016-12-26T02:10:17.387Z,63.15
2016-12-26T02:10:34.588Z,62.18
2016-12-26T02:10:52.331Z,61.7
2016-12-26T02:11:09.568Z,62.08
2016-12-26T02:11:26.703Z,61.7
2016-12-26T02:11:43.915Z,61.99
2016-12-26T02:12:01.095Z,62.28
2016-12-26T02:12:18.250Z,61.6
2016-12-26T02:12:35.687Z,61.99
2016-12-26T02:12:52.867Z,61.22
2016-12-26T02:13:10.054Z,61.7
2016-12-26T02:13:27.239Z,61.7
2016-12-26T02:13:44.414Z,61.99
2016-12-26T02:14:01.573Z,61.89
2016-12-26T02:14:18.771Z,60.93
2016-12-26T02:14:35.959Z,61.12
2016-12-26T02:14:53.137Z,60.73
2016-12-26T02:15:10.321Z,60.83
2016-12-26T02:15:27.507Z,60.93
2016-12-26T02:15:44.699Z,61.51
2016-12-26T02:16:01.917Z,59.86
2016-12-26T02:16:19.103Z,59.67
2016-12-26T02:16:36.270Z,61.31
2016-12-26T02:16:53.465Z,60.93
2016-12-26T02:17:10.662Z,60.73
2016-12-26T02:17:27.835Z,59.77
2016-12-26T02:17:45.008Z,60.83
2016-12-26T02:18:02.206Z,62.18
2016-12-26T02:18:19.379Z,62.08
2016-12-26T02:18:36.531Z,62.08
2016-12-26T02:18:53.699Z,63.53
2016-12-26T02:19:10.913Z,63.43
2016-12-26T02:19:28.095Z,64.31
2016-12-26T02:19:45.260Z,64.31
2016-12-26T02:20:02.429Z,63.63
2016-12-26T02:20:19.624Z,65.2
2016-12-26T02:20:36.786Z,65.37
2016-12-26T02:20:53.959Z,65.78
2016-12-26T02:21:11.114Z,65.4
2016-12-26T02:21:28.273Z,65.3
2016-12-26T02:21:45.439Z,64.34
2016-12-26T02:22:02.617Z,65.3
2016-12-26T02:22:19.774Z,65.11
2016-12-26T02:22:36.954Z,65.11
2016-12-26T02:22:54.163Z,65.3
2016-12-26T02:23:11.355Z,65.01
2016-12-26T02:23:28.519Z,64.43
2016-12-26T02:23:45.703Z,63.34
2016-12-26T02:24:02.894Z,63.05
2016-12-26T02:24:20.073Z,64.01
2016-12-26T02:24:37.256Z,63.82
2016-12-26T02:24:54.459Z,64.01
2016-12-26T02:25:11.639Z,63.82
2016-12-26T02:25:28.800Z,63.24
2016-12-26T02:25:45.973Z,63.05
2016-12-26T02:26:03.143Z,62.47
2016-12-26T02:26:20.327Z,60.35
2016-12-26T02:26:37.496Z,61.6
2016-12-26T02:26:54.683Z,62.76
2016-12-26T02:27:11.854Z,62.28
2016-12-26T02:27:29.030Z,60.93
2016-12-26T02:27:46.234Z,60.83
2016-12-26T02:28:03.424Z,61.89
2016-12-26T02:28:20.581Z,61.41
2016-12-26T02:28:37.743Z,60.54
2016-12-26T02:28:54.933Z,62.08
2016-12-26T02:29:12.120Z,61.6
2016-12-26T02:29:29.321Z,61.12
2016-12-26T02:29:46.535Z,60.06
2016-12-26T02:30:03.714Z,58.03
2016-12-26T02:30:20.894Z,58.51
2016-12-26T02:30:38.065Z,61.99
2016-12-26T02:30:55.242Z,61.89
2016-12-26T02:31:12.424Z,63.15
2016-12-26T02:31:29.609Z,61.89
2016-12-26T02:31:46.767Z,61.8
2016-12-26T02:32:03.952Z,61.02
2016-12-26T02:32:21.149Z,63.05
2016-12-26T02:32:38.431Z,60.83
2016-12-26T02:32:55.586Z,59.09
2016-12-26T02:33:12.788Z,59.19
2016-12-26T02:33:29.972Z,58.7
2016-12-26T02:33:47.162Z,59.77
2016-12-26T02:34:04.880Z,59.38
2016-12-26T02:34:22.055Z,58.8
2016-12-26T02:34:39.210Z,59.58
2016-12-26T02:34:56.430Z,58.42
2016-12-26T02:35:13.597Z,58.22
2016-12-26T02:35:30.790Z,58.03
2016-12-26T02:35:48.551Z,59.67
2016-12-26T02:36:05.711Z,59.96
2016-12-26T02:36:22.884Z,60.25
2016-12-26T02:36:40.059Z,59.38
2016-12-26T02:36:57.232Z,59.48
2016-12-26T02:37:14.396Z,59.48
2016-12-26T02:37:31.594Z,59.58
2016-12-26T02:37:48.771Z,60.06
2016-12-26T02:38:05.972Z,60.54
2016-12-26T02:38:23.172Z,61.7
2016-12-26T02:38:40.347Z,61.8
2016-12-26T02:38:57.523Z,62.08
2016-12-26T02:39:14.685Z,60.35
2016-12-26T02:39:31.906Z,60.64
2016-12-26T02:39:49.103Z,60.83
2016-12-26T02:40:06.273Z,60.35
2016-12-26T02:40:23.448Z,60.54
2016-12-26T02:40:40.647Z,60.54
2016-12-26T02:40:57.830Z,59.67
2016-12-26T02:41:15.580Z,58.9
2016-12-26T02:41:32.739Z,59
2016-12-26T02:41:49.915Z,58.9
2016-12-26T02:42:07.672Z,58.61
2016-12-26T02:42:24.876Z,59.19
2016-12-26T02:42:42.052Z,58.9
2016-12-26T02:42:59.240Z,58.61
2016-12-26T02:43:16.427Z,58.8
2016-12-26T02:43:33.579Z,57.35
2016-12-26T02:43:50.771Z,55.9
2016-12-26T02:44:07.959Z,53.69
2016-12-26T02:44:25.135Z,53.59
2016-12-26T02:44:42.301Z,52.72
2016-12-26T02:44:59.497Z,52.5
2016-12-26T02:45:16.666Z,52.91
2016-12-26T02:45:33.867Z,52.33
2016-12-26T02:45:51.033Z,53.69
2016-12-26T02:46:08.184Z,54.24
2016-12-26T02:46:25.402Z,55.13
2016-12-26T02:46:42.596Z,55.33
2016-12-26T02:46:59.793Z,56.48
2016-12-26T02:47:16.961Z,56.58
2016-12-26T02:47:34.161Z,57.64
2016-12-26T02:47:51.341Z,58.32
2016-12-26T02:48:08.863Z,58.61
2016-12-26T02:48:26.333Z,59.86
2016-12-26T02:48:43.486Z,60.35
2016-12-26T02:49:00.678Z,60.35
2016-12-26T02:49:17.849Z,61.31
2016-12-26T02:49:35.045Z,61.7
2016-12-26T02:49:52.236Z,63.15
2016-12-26T02:50:09.439Z,62.95
2016-12-26T02:50:26.622Z,62.95
2016-12-26T02:50:43.796Z,63.82
2016-12-26T02:51:00.972Z,63.85
2016-12-26T02:51:18.725Z,63.82
2016-12-26T02:51:35.894Z,64.89
2016-12-26T02:51:53.098Z,63.47
2016-12-26T02:52:10.306Z,64.11
2016-12-26T02:52:27.502Z,65.75
2016-12-26T02:52:44.693Z,66.46
2016-12-26T02:53:01.845Z,65.98
2016-12-26T02:53:19.017Z,67.78
2016-12-26T02:53:36.196Z,68.49
2016-12-26T02:53:53.361Z,67.72
2016-12-26T02:54:10.511Z,65.4
2016-12-26T02:54:27.687Z,64.34
2016-12-26T02:54:44.877Z,64.43
2016-12-26T02:55:02.065Z,66.75
2016-12-26T02:55:19.279Z,66.56
2016-12-26T02:55:36.457Z,67.04
2016-12-26T02:55:53.643Z,67.62
2016-12-26T02:56:10.816Z,67.62
2016-12-26T02:56:28.572Z,68.46
2016-12-26T02:56:45.768Z,68.78
2016-12-26T02:57:02.938Z,68.59
2016-12-26T02:57:20.110Z,67.91
2016-12-26T02:57:37.301Z,67.33
2016-12-26T02:57:55.046Z,68.1
2016-12-26T02:58:12.230Z,66.56
2016-12-26T02:58:29.421Z,66.63
2016-12-26T02:58:46.609Z,67.01
2016-12-26T02:59:03.778Z,66.63
2016-12-26T02:59:20.938Z,66.63
2016-12-26T02:59:38.116Z,66.53
2016-12-26T02:59:55.293Z,66.53
2016-12-26T03:00:12.504Z,66.53
2016-12-26T03:00:29.713Z,66.33
2016-12-26T03:00:48.885Z,65.08
2016-12-26T03:01:06.035Z,65.66
2016-12-26T03:01:23.215Z,66.05
2016-12-26T03:01:40.357Z,65.08
2016-12-26T03:01:57.526Z,65.27
2016-12-26T03:02:14.708Z,65.85
2016-12-26T03:02:31.885Z,65.95
2016-12-26T03:02:49.056Z,65.95
2016-12-26T03:03:06.286Z,65.95
2016-12-26T03:03:23.463Z,66.05
2016-12-26T03:03:40.635Z,66.63
2016-12-26T03:03:57.824Z,66.53
2016-12-26T03:04:14.994Z,67.2
2016-12-26T03:04:32.164Z,66.53
2016-12-26T03:04:49.316Z,66.43
2016-12-26T03:05:06.506Z,66.63
2016-12-26T03:05:23.708Z,66.82
2016-12-26T03:05:40.881Z,67.3
2016-12-26T03:05:58.051Z,67.2
2016-12-26T03:06:15.205Z,67.3
2016-12-26T03:06:32.392Z,67.59
2016-12-26T03:06:49.560Z,67.69
2016-12-26T03:07:06.757Z,67.3
2016-12-26T03:07:23.929Z,67.78
2016-12-26T03:07:41.098Z,67.11
2016-12-26T03:07:58.269Z,67.59
2016-12-26T03:08:15.462Z,67.69
2016-12-26T03:08:32.655Z,67.59
2016-12-26T03:08:49.840Z,68.26
2016-12-26T03:09:07.040Z,68.65
2016-12-26T03:09:24.240Z,68.36
2016-12-26T03:09:41.445Z,68.26
2016-12-26T03:09:58.619Z,68.75
2016-12-26T03:10:15.795Z,68.46
2016-12-26T03:10:32.982Z,68.65
2016-12-26T03:10:50.178Z,68.17
2016-12-26T03:11:07.366Z,66.91
2016-12-26T03:11:24.552Z,66.53
2016-12-26T03:11:41.764Z,66.24
2016-12-26T03:11:58.934Z,66.53
2016-12-26T03:12:16.132Z,66.72
2016-12-26T03:12:33.622Z,66.53
2016-12-26T03:12:50.861Z,66.33
2016-12-26T03:13:08.024Z,66.24
2016-12-26T03:13:25.192Z,66.82
2016-12-26T03:13:42.365Z,66.72
2016-12-26T03:13:59.528Z,66.63
2016-12-26T03:14:16.694Z,65.85
2016-12-26T03:14:33.880Z,65.37
2016-12-26T03:14:51.038Z,65.08
2016-12-26T03:15:08.193Z,63.92
2016-12-26T03:15:25.377Z,64.31
2016-12-26T03:15:42.579Z,64.69
2016-12-26T03:15:59.778Z,64.98
2016-12-26T03:16:16.981Z,64.79
2016-12-26T03:16:34.151Z,64.79
2016-12-26T03:16:51.333Z,65.95
2016-12-26T03:17:08.544Z,65.37
2016-12-26T03:17:25.713Z,67.11
2016-12-26T03:17:42.926Z,65.75
2016-12-26T03:18:00.107Z,66.53
2016-12-26T03:18:17.273Z,66.24
2016-12-26T03:18:34.446Z,64.98
2016-12-26T03:18:51.637Z,65.95
2016-12-26T03:19:08.816Z,66.43
2016-12-26T03:19:26.016Z,66.72
2016-12-26T03:19:43.183Z,66.33
2016-12-26T03:20:00.364Z,64.89
2016-12-26T03:20:18.116Z,64.89
2016-12-26T03:20:35.274Z,65.66
2016-12-26T03:20:52.453Z,66.53
2016-12-26T03:21:09.642Z,66.43
2016-12-26T03:21:26.820Z,67.11
2016-12-26T03:21:44.012Z,67.2
2016-12-26T03:22:01.202Z,65.27
2016-12-26T03:22:18.367Z,66.24
2016-12-26T03:22:35.517Z,65.85
2016-12-26T03:22:52.679Z,65.85
2016-12-26T03:23:10.421Z,65.75
2016-12-26T03:23:27.576Z,66.53
2016-12-26T03:23:44.763Z,65.95
2016-12-26T03:24:02.006Z,66.33
2016-12-26T03:24:19.202Z,66.43
2016-12-26T03:24:36.391Z,67.01
2016-12-26T03:24:53.567Z,66.43
2016-12-26T03:25:11.276Z,66.63
2016-12-26T03:25:28.464Z,65.08
2016-12-26T03:25:45.643Z,65.37
2016-12-26T03:26:02.811Z,66.63
2016-12-26T03:26:19.989Z,67.11
2016-12-26T03:26:37.176Z,68.46
2016-12-26T03:26:54.335Z,68.17
2016-12-26T03:27:11.550Z,68.36
2016-12-26T03:27:28.727Z,68.46
2016-12-26T03:27:45.920Z,67.49
2016-12-26T03:28:03.088Z,67.4
2016-12-26T03:28:20.256Z,68.55
2016-12-26T03:28:37.433Z,68.46
2016-12-26T03:28:54.625Z,68.65
2016-12-26T03:29:11.788Z,69.71
2016-12-26T03:29:28.987Z,69.23
2016-12-26T03:29:46.126Z,69.71
2016-12-26T03:30:03.328Z,70
2016-12-26T03:30:20.509Z,69.42
2016-12-26T03:30:37.704Z,69.81
2016-12-26T03:30:54.913Z,69.62
2016-12-26T03:31:12.081Z,69.81
2016-12-26T03:31:29.256Z,70.2
2016-12-26T03:31:46.463Z,69.52
2016-12-26T03:32:03.635Z,69.42
2016-12-26T03:32:20.794Z,69.71
2016-12-26T03:32:37.969Z,69.13
2016-12-26T03:32:55.132Z,69.32
2016-12-26T03:33:12.309Z,69.62
2016-12-26T03:33:29.460Z,69.9
2016-12-26T03:33:46.657Z,70
2016-12-26T03:34:03.845Z,70.29
2016-12-26T03:34:21.012Z,70.1
2016-12-26T03:34:38.191Z,69.81
2016-12-26T03:34:55.368Z,69.32
2016-12-26T03:35:12.542Z,69.9
2016-12-26T03:35:29.725Z,69.9
2016-12-26T03:35:46.905Z,70.39
2016-12-26T03:36:04.092Z,70.78
2016-12-26T03:36:21.263Z,70.48
2016-12-26T03:36:38.432Z,70.48
2016-12-26T03:36:55.621Z,70.1
2016-12-26T03:37:12.850Z,69.81
2016-12-26T03:37:30.032Z,70
2016-12-26T03:37:47.221Z,70
2016-12-26T03:38:04.422Z,70
2016-12-26T03:38:21.600Z,70.78
2016-12-26T03:38:38.771Z,71.06
2016-12-26T03:38:55.958Z,70.97
2016-12-26T03:39:13.128Z,71.64
2016-12-26T03:39:30.309Z,72.13
2016-12-26T03:39:47.485Z,71.74
2016-12-26T03:40:04.645Z,70.97
2016-12-26T03:40:21.836Z,70.39
2016-12-26T03:40:39.022Z,70.48
2016-12-26T03:40:56.189Z,70.78
2016-12-26T03:41:13.363Z,72.13
2016-12-26T03:41:30.560Z,72.52
2016-12-26T03:41:47.764Z,70.78
2016-12-26T03:42:04.934Z,72.52
2016-12-26T03:42:22.121Z,72.9
2016-12-26T03:42:39.550Z,72.32
2016-12-26T03:42:56.755Z,71.45